sensor_id;sensor_type;location;lat;lon;timestamp;P1;durP1;ratioP1;P2;durP2;ratioP2
14088;SDS011;7120;52.890;6.040;2023-05-16T00:01:09;16.60;;;2.90;;
14088;SDS011;7120;52.890;6.040;2023-05-16T00:03:34;12.20;;;3.33;;
14088;SDS011;7120;52.890;6.040;2023-05-16T00:06:02;13.67;;;2.80;;
14088;SDS011;7120;52.890;6.040;2023-05-16T00:08:27;18.17;;;3.33;;
14088;SDS011;7120;52.890;6.040;2023-05-16T00:10:53;15.73;;;3.63;;
14088;SDS011;7120;52.890;6.040;2023-05-16T00:13:18;19.17;;;3.37;;
14088;SDS011;7120;52.890;6.040;2023-05-16T00:15:50;12.87;;;2.60;;
14088;SDS011;7120;52.890;6.040;2023-05-16T00:18:17;13.20;;;2.80;;
14088;SDS011;7120;52.890;6.040;2023-05-16T00:20:43;13.67;;;2.90;;
14088;SDS011;7120;52.890;6.040;2023-05-16T00:23:09;15.20;;;3.30;;
14088;SDS011;7120;52.890;6.040;2023-05-16T00:25:34;15.20;;;3.57;;
14088;SDS011;7120;52.890;6.040;2023-05-16T00:28:00;11.57;;;3.10;;
14088;SDS011;7120;52.890;6.040;2023-05-16T00:30:26;10.97;;;3.40;;
14088;SDS011;7120;52.890;6.040;2023-05-16T00:32:53;13.53;;;3.23;;
14088;SDS011;7120;52.890;6.040;2023-05-16T00:35:19;18.50;;;3.10;;
14088;SDS011;7120;52.890;6.040;2023-05-16T00:37:44;12.80;;;3.67;;
14088;SDS011;7120;52.890;6.040;2023-05-16T00:40:10;14.23;;;2.90;;
14088;SDS011;7120;52.890;6.040;2023-05-16T00:42:35;16.47;;;3.33;;
14088;SDS011;7120;52.890;6.040;2023-05-16T00:45:01;20.80;;;2.90;;
14088;SDS011;7120;52.890;6.040;2023-05-16T00:47:26;15.77;;;2.73;;
14088;SDS011;7120;52.890;6.040;2023-05-16T00:49:51;16.00;;;3.47;;
14088;SDS011;7120;52.890;6.040;2023-05-16T00:52:17;13.97;;;2.93;;
14088;SDS011;7120;52.890;6.040;2023-05-16T00:54:42;9.50;;;3.30;;
14088;SDS011;7120;52.890;6.040;2023-05-16T00:57:08;15.80;;;3.53;;
14088;SDS011;7120;52.890;6.040;2023-05-16T00:59:33;15.23;;;2.93;;
14088;SDS011;7120;52.890;6.040;2023-05-16T01:01:59;13.27;;;3.00;;
14088;SDS011;7120;52.890;6.040;2023-05-16T01:04:25;9.47;;;2.37;;
14088;SDS011;7120;52.890;6.040;2023-05-16T01:06:52;11.40;;;3.17;;
14088;SDS011;7120;52.890;6.040;2023-05-16T01:09:17;10.00;;;2.90;;
14088;SDS011;7120;52.890;6.040;2023-05-16T01:22:45;14.40;;;2.67;;
14088;SDS011;7120;52.890;6.040;2023-05-16T01:28:20;9.47;;;3.00;;
14088;SDS011;7120;52.890;6.040;2023-05-16T01:30:46;12.83;;;2.60;;
14088;SDS011;7120;52.890;6.040;2023-05-16T01:33:12;12.53;;;2.63;;
14088;SDS011;7120;52.890;6.040;2023-05-16T01:35:39;15.93;;;3.37;;
14088;SDS011;7120;52.890;6.040;2023-05-16T01:38:19;13.83;;;3.10;;
14088;SDS011;7120;52.890;6.040;2023-05-16T01:43:33;13.93;;;2.33;;
14088;SDS011;7120;52.890;6.040;2023-05-16T01:46:10;13.23;;;2.87;;
14088;SDS011;7120;52.890;6.040;2023-05-16T01:48:48;15.90;;;3.30;;
14088;SDS011;7120;52.890;6.040;2023-05-16T01:51:18;13.60;;;2.77;;
14088;SDS011;7120;52.890;6.040;2023-05-16T01:53:46;13.10;;;3.10;;
14088;SDS011;7120;52.890;6.040;2023-05-16T01:56:14;10.83;;;2.70;;
14088;SDS011;7120;52.890;6.040;2023-05-16T01:58:41;14.07;;;2.93;;
14088;SDS011;7120;52.890;6.040;2023-05-16T02:01:08;11.37;;;2.83;;
14088;SDS011;7120;52.890;6.040;2023-05-16T02:03:33;8.87;;;2.50;;
14088;SDS011;7120;52.890;6.040;2023-05-16T02:05:59;13.07;;;2.80;;
14088;SDS011;7120;52.890;6.040;2023-05-16T02:08:24;14.27;;;3.23;;
14088;SDS011;7120;52.890;6.040;2023-05-16T02:10:50;10.20;;;2.83;;
14088;SDS011;7120;52.890;6.040;2023-05-16T02:13:16;12.73;;;2.87;;
14088;SDS011;7120;52.890;6.040;2023-05-16T02:15:42;11.93;;;2.63;;
14088;SDS011;7120;52.890;6.040;2023-05-16T02:18:07;17.23;;;2.60;;
14088;SDS011;7120;52.890;6.040;2023-05-16T02:20:33;14.97;;;2.73;;
14088;SDS011;7120;52.890;6.040;2023-05-16T02:22:58;18.93;;;3.73;;
14088;SDS011;7120;52.890;6.040;2023-05-16T02:25:24;13.37;;;3.20;;
14088;SDS011;7120;52.890;6.040;2023-05-16T02:27:50;14.23;;;3.83;;
14088;SDS011;7120;52.890;6.040;2023-05-16T02:30:15;16.70;;;3.50;;
14088;SDS011;7120;52.890;6.040;2023-05-16T02:32:40;20.67;;;3.70;;
14088;SDS011;7120;52.890;6.040;2023-05-16T02:35:09;17.13;;;3.67;;
14088;SDS011;7120;52.890;6.040;2023-05-16T02:37:35;15.47;;;3.83;;
14088;SDS011;7120;52.890;6.040;2023-05-16T02:40:00;15.00;;;3.83;;
14088;SDS011;7120;52.890;6.040;2023-05-16T02:42:26;13.77;;;3.40;;
14088;SDS011;7120;52.890;6.040;2023-05-16T02:44:52;21.13;;;3.70;;
14088;SDS011;7120;52.890;6.040;2023-05-16T02:47:17;17.03;;;3.63;;
14088;SDS011;7120;52.890;6.040;2023-05-16T02:49:43;12.83;;;4.07;;
14088;SDS011;7120;52.890;6.040;2023-05-16T02:52:08;15.60;;;4.07;;
14088;SDS011;7120;52.890;6.040;2023-05-16T02:54:34;16.27;;;4.47;;
14088;SDS011;7120;52.890;6.040;2023-05-16T02:56:59;21.67;;;5.03;;
14088;SDS011;7120;52.890;6.040;2023-05-16T02:59:25;11.53;;;4.00;;
14088;SDS011;7120;52.890;6.040;2023-05-16T03:01:50;15.80;;;4.40;;
14088;SDS011;7120;52.890;6.040;2023-05-16T03:04:16;15.60;;;4.23;;
14088;SDS011;7120;52.890;6.040;2023-05-16T03:06:41;13.70;;;3.87;;
14088;SDS011;7120;52.890;6.040;2023-05-16T03:09:07;19.77;;;4.43;;
14088;SDS011;7120;52.890;6.040;2023-05-16T03:11:32;17.93;;;3.60;;
14088;SDS011;7120;52.890;6.040;2023-05-16T03:13:57;16.93;;;4.03;;
14088;SDS011;7120;52.890;6.040;2023-05-16T03:16:24;11.10;;;3.87;;
14088;SDS011;7120;52.890;6.040;2023-05-16T03:18:49;11.47;;;4.30;;
14088;SDS011;7120;52.890;6.040;2023-05-16T03:21:15;15.07;;;4.20;;
14088;SDS011;7120;52.890;6.040;2023-05-16T03:23:40;17.93;;;3.93;;
14088;SDS011;7120;52.890;6.040;2023-05-16T03:26:05;15.20;;;4.30;;
14088;SDS011;7120;52.890;6.040;2023-05-16T03:28:31;14.87;;;4.57;;
14088;SDS011;7120;52.890;6.040;2023-05-16T03:30:57;13.83;;;3.97;;
14088;SDS011;7120;52.890;6.040;2023-05-16T03:33:22;13.53;;;4.17;;
14088;SDS011;7120;52.890;6.040;2023-05-16T03:35:48;14.83;;;4.03;;
14088;SDS011;7120;52.890;6.040;2023-05-16T03:38:14;15.27;;;4.77;;
14088;SDS011;7120;52.890;6.040;2023-05-16T03:40:41;14.00;;;4.60;;
14088;SDS011;7120;52.890;6.040;2023-05-16T03:43:06;14.83;;;4.53;;
14088;SDS011;7120;52.890;6.040;2023-05-16T03:45:32;14.73;;;4.43;;
14088;SDS011;7120;52.890;6.040;2023-05-16T03:47:57;17.97;;;4.63;;
14088;SDS011;7120;52.890;6.040;2023-05-16T03:50:23;12.27;;;4.57;;
14088;SDS011;7120;52.890;6.040;2023-05-16T03:52:48;15.80;;;4.23;;
14088;SDS011;7120;52.890;6.040;2023-05-16T03:55:14;11.97;;;4.27;;
14088;SDS011;7120;52.890;6.040;2023-05-16T03:57:41;15.83;;;5.10;;
14088;SDS011;7120;52.890;6.040;2023-05-16T04:00:08;12.17;;;4.30;;
14088;SDS011;7120;52.890;6.040;2023-05-16T04:02:35;15.63;;;5.40;;
14088;SDS011;7120;52.890;6.040;2023-05-16T04:05:00;13.80;;;4.53;;
14088;SDS011;7120;52.890;6.040;2023-05-16T04:07:25;17.90;;;4.70;;
14088;SDS011;7120;52.890;6.040;2023-05-16T04:09:53;13.67;;;4.13;;
14088;SDS011;7120;52.890;6.040;2023-05-16T04:12:18;14.00;;;4.27;;
14088;SDS011;7120;52.890;6.040;2023-05-16T04:14:44;13.60;;;4.00;;
14088;SDS011;7120;52.890;6.040;2023-05-16T04:17:09;13.37;;;3.43;;
14088;SDS011;7120;52.890;6.040;2023-05-16T04:19:36;14.60;;;3.43;;
14088;SDS011;7120;52.890;6.040;2023-05-16T04:22:01;15.00;;;3.30;;
14088;SDS011;7120;52.890;6.040;2023-05-16T04:24:27;12.33;;;3.50;;
14088;SDS011;7120;52.890;6.040;2023-05-16T04:26:53;9.50;;;3.43;;
14088;SDS011;7120;52.890;6.040;2023-05-16T04:29:19;11.33;;;3.17;;
14088;SDS011;7120;52.890;6.040;2023-05-16T04:31:45;8.13;;;2.77;;
14088;SDS011;7120;52.890;6.040;2023-05-16T04:34:10;10.97;;;2.70;;
14088;SDS011;7120;52.890;6.040;2023-05-16T04:36:37;11.23;;;3.30;;
14088;SDS011;7120;52.890;6.040;2023-05-16T04:39:02;14.80;;;3.13;;
14088;SDS011;7120;52.890;6.040;2023-05-16T04:41:28;11.03;;;2.83;;
14088;SDS011;7120;52.890;6.040;2023-05-16T04:43:53;9.90;;;2.83;;
14088;SDS011;7120;52.890;6.040;2023-05-16T04:46:19;9.10;;;2.50;;
14088;SDS011;7120;52.890;6.040;2023-05-16T04:48:45;12.17;;;3.00;;
14088;SDS011;7120;52.890;6.040;2023-05-16T04:51:10;9.13;;;2.90;;
14088;SDS011;7120;52.890;6.040;2023-05-16T04:53:36;13.33;;;3.03;;
14088;SDS011;7120;52.890;6.040;2023-05-16T04:56:01;9.67;;;2.80;;
14088;SDS011;7120;52.890;6.040;2023-05-16T04:58:27;12.30;;;2.70;;
14088;SDS011;7120;52.890;6.040;2023-05-16T05:00:52;8.07;;;2.63;;
14088;SDS011;7120;52.890;6.040;2023-05-16T05:03:19;7.37;;;2.30;;
14088;SDS011;7120;52.890;6.040;2023-05-16T05:05:45;9.33;;;2.47;;
14088;SDS011;7120;52.890;6.040;2023-05-16T05:08:11;9.17;;;2.53;;
14088;SDS011;7120;52.890;6.040;2023-05-16T05:10:37;8.60;;;2.33;;
14088;SDS011;7120;52.890;6.040;2023-05-16T05:13:02;11.13;;;2.97;;
14088;SDS011;7120;52.890;6.040;2023-05-16T05:15:28;10.43;;;2.60;;
14088;SDS011;7120;52.890;6.040;2023-05-16T05:17:54;11.20;;;2.83;;
14088;SDS011;7120;52.890;6.040;2023-05-16T05:20:19;8.20;;;2.47;;
14088;SDS011;7120;52.890;6.040;2023-05-16T05:22:45;8.00;;;2.93;;
14088;SDS011;7120;52.890;6.040;2023-05-16T05:25:11;8.67;;;2.37;;
14088;SDS011;7120;52.890;6.040;2023-05-16T05:27:36;10.57;;;2.60;;
14088;SDS011;7120;52.890;6.040;2023-05-16T05:30:02;9.43;;;2.10;;
14088;SDS011;7120;52.890;6.040;2023-05-16T05:32:27;9.03;;;2.33;;
14088;SDS011;7120;52.890;6.040;2023-05-16T05:34:53;12.10;;;3.43;;
14088;SDS011;7120;52.890;6.040;2023-05-16T05:37:19;6.47;;;2.03;;
14088;SDS011;7120;52.890;6.040;2023-05-16T05:39:44;7.17;;;2.63;;
14088;SDS011;7120;52.890;6.040;2023-05-16T05:42:10;9.83;;;3.00;;
14088;SDS011;7120;52.890;6.040;2023-05-16T05:44:36;15.50;;;3.10;;
14088;SDS011;7120;52.890;6.040;2023-05-16T05:47:01;8.37;;;2.53;;
14088;SDS011;7120;52.890;6.040;2023-05-16T05:49:27;9.70;;;2.77;;
14088;SDS011;7120;52.890;6.040;2023-05-16T05:51:53;10.40;;;2.57;;
14088;SDS011;7120;52.890;6.040;2023-05-16T05:54:19;10.07;;;2.40;;
14088;SDS011;7120;52.890;6.040;2023-05-16T05:56:44;7.43;;;2.07;;
14088;SDS011;7120;52.890;6.040;2023-05-16T05:59:10;5.97;;;2.23;;
14088;SDS011;7120;52.890;6.040;2023-05-16T06:01:36;6.40;;;2.40;;
14088;SDS011;7120;52.890;6.040;2023-05-16T06:04:01;8.23;;;2.20;;
14088;SDS011;7120;52.890;6.040;2023-05-16T06:06:26;5.13;;;1.67;;
14088;SDS011;7120;52.890;6.040;2023-05-16T06:08:53;7.40;;;1.77;;
14088;SDS011;7120;52.890;6.040;2023-05-16T06:11:18;6.40;;;1.80;;
14088;SDS011;7120;52.890;6.040;2023-05-16T06:13:44;6.23;;;1.30;;
14088;SDS011;7120;52.890;6.040;2023-05-16T06:16:09;8.67;;;1.50;;
14088;SDS011;7120;52.890;6.040;2023-05-16T06:18:35;5.30;;;1.40;;
14088;SDS011;7120;52.890;6.040;2023-05-16T06:21:00;4.70;;;1.40;;
14088;SDS011;7120;52.890;6.040;2023-05-16T06:23:25;8.27;;;2.57;;
14088;SDS011;7120;52.890;6.040;2023-05-16T06:25:51;5.57;;;1.40;;
14088;SDS011;7120;52.890;6.040;2023-05-16T06:28:16;4.17;;;1.80;;
14088;SDS011;7120;52.890;6.040;2023-05-16T06:30:41;6.53;;;1.80;;
14088;SDS011;7120;52.890;6.040;2023-05-16T06:33:07;6.13;;;1.83;;
14088;SDS011;7120;52.890;6.040;2023-05-16T06:35:32;6.60;;;1.80;;
14088;SDS011;7120;52.890;6.040;2023-05-16T06:37:57;4.93;;;1.80;;
14088;SDS011;7120;52.890;6.040;2023-05-16T06:40:23;10.07;;;2.37;;
14088;SDS011;7120;52.890;6.040;2023-05-16T06:42:48;7.30;;;1.40;;
14088;SDS011;7120;52.890;6.040;2023-05-16T06:45:14;7.33;;;1.93;;
14088;SDS011;7120;52.890;6.040;2023-05-16T06:47:39;5.73;;;1.80;;
14088;SDS011;7120;52.890;6.040;2023-05-16T06:50:05;6.60;;;1.47;;
14088;SDS011;7120;52.890;6.040;2023-05-16T06:52:31;6.30;;;1.67;;
14088;SDS011;7120;52.890;6.040;2023-05-16T06:54:56;8.57;;;2.10;;
14088;SDS011;7120;52.890;6.040;2023-05-16T06:57:23;5.27;;;1.83;;
14088;SDS011;7120;52.890;6.040;2023-05-16T06:59:49;6.13;;;2.00;;
14088;SDS011;7120;52.890;6.040;2023-05-16T07:02:14;8.60;;;1.77;;
14088;SDS011;7120;52.890;6.040;2023-05-16T07:04:39;8.27;;;2.20;;
14088;SDS011;7120;52.890;6.040;2023-05-16T07:07:05;6.57;;;1.80;;
14088;SDS011;7120;52.890;6.040;2023-05-16T07:09:32;5.53;;;1.50;;
14088;SDS011;7120;52.890;6.040;2023-05-16T07:11:57;5.10;;;1.40;;
14088;SDS011;7120;52.890;6.040;2023-05-16T07:14:23;6.13;;;1.53;;
14088;SDS011;7120;52.890;6.040;2023-05-16T07:16:48;5.10;;;1.60;;
14088;SDS011;7120;52.890;6.040;2023-05-16T07:19:13;3.77;;;1.70;;
14088;SDS011;7120;52.890;6.040;2023-05-16T07:21:39;9.37;;;1.80;;
14088;SDS011;7120;52.890;6.040;2023-05-16T07:24:04;6.93;;;1.80;;
14088;SDS011;7120;52.890;6.040;2023-05-16T07:26:31;8.90;;;1.47;;
14088;SDS011;7120;52.890;6.040;2023-05-16T07:28:56;7.40;;;1.40;;
14088;SDS011;7120;52.890;6.040;2023-05-16T07:31:22;6.87;;;1.50;;
14088;SDS011;7120;52.890;6.040;2023-05-16T07:33:48;5.80;;;1.67;;
14088;SDS011;7120;52.890;6.040;2023-05-16T07:36:13;8.33;;;1.87;;
14088;SDS011;7120;52.890;6.040;2023-05-16T07:38:39;6.80;;;1.80;;
14088;SDS011;7120;52.890;6.040;2023-05-16T07:41:04;9.87;;;1.97;;
14088;SDS011;7120;52.890;6.040;2023-05-16T07:43:30;5.40;;;1.60;;
14088;SDS011;7120;52.890;6.040;2023-05-16T07:45:56;6.50;;;2.00;;
14088;SDS011;7120;52.890;6.040;2023-05-16T07:48:21;6.83;;;1.73;;
14088;SDS011;7120;52.890;6.040;2023-05-16T07:50:47;7.07;;;1.77;;
14088;SDS011;7120;52.890;6.040;2023-05-16T07:53:12;4.20;;;1.50;;
14088;SDS011;7120;52.890;6.040;2023-05-16T07:55:38;5.67;;;1.93;;
14088;SDS011;7120;52.890;6.040;2023-05-16T07:58:03;5.23;;;1.90;;
14088;SDS011;7120;52.890;6.040;2023-05-16T08:00:28;6.47;;;1.70;;
14088;SDS011;7120;52.890;6.040;2023-05-16T08:02:54;6.67;;;1.50;;
14088;SDS011;7120;52.890;6.040;2023-05-16T08:05:19;3.50;;;1.60;;
14088;SDS011;7120;52.890;6.040;2023-05-16T08:07:45;5.93;;;1.70;;
14088;SDS011;7120;52.890;6.040;2023-05-16T08:10:10;4.90;;;1.60;;
14088;SDS011;7120;52.890;6.040;2023-05-16T08:12:36;7.43;;;2.00;;
14088;SDS011;7120;52.890;6.040;2023-05-16T08:15:02;7.70;;;1.63;;
14088;SDS011;7120;52.890;6.040;2023-05-16T08:17:28;3.77;;;1.50;;
14088;SDS011;7120;52.890;6.040;2023-05-16T08:19:54;5.17;;;1.37;;
14088;SDS011;7120;52.890;6.040;2023-05-16T08:22:20;5.07;;;1.40;;
14088;SDS011;7120;52.890;6.040;2023-05-16T08:24:45;4.07;;;1.23;;
14088;SDS011;7120;52.890;6.040;2023-05-16T08:27:11;4.30;;;1.67;;
14088;SDS011;7120;52.890;6.040;2023-05-16T08:29:36;4.93;;;1.30;;
14088;SDS011;7120;52.890;6.040;2023-05-16T08:32:02;4.10;;;1.40;;
14088;SDS011;7120;52.890;6.040;2023-05-16T08:34:29;4.57;;;1.37;;
14088;SDS011;7120;52.890;6.040;2023-05-16T08:36:56;3.23;;;1.80;;
14088;SDS011;7120;52.890;6.040;2023-05-16T08:39:21;4.33;;;2.00;;
14088;SDS011;7120;52.890;6.040;2023-05-16T08:41:46;4.03;;;1.67;;
14088;SDS011;7120;52.890;6.040;2023-05-16T08:44:12;4.60;;;1.93;;
14088;SDS011;7120;52.890;6.040;2023-05-16T08:46:45;5.10;;;1.70;;
14088;SDS011;7120;52.890;6.040;2023-05-16T08:49:15;2.73;;;1.43;;
14088;SDS011;7120;52.890;6.040;2023-05-16T08:51:42;5.60;;;1.90;;
14088;SDS011;7120;52.890;6.040;2023-05-16T08:54:10;6.47;;;1.93;;
14088;SDS011;7120;52.890;6.040;2023-05-16T08:56:37;6.60;;;1.80;;
14088;SDS011;7120;52.890;6.040;2023-05-16T08:59:04;8.50;;;1.70;;
14088;SDS011;7120;52.890;6.040;2023-05-16T09:01:30;4.33;;;1.50;;
14088;SDS011;7120;52.890;6.040;2023-05-16T09:03:56;5.93;;;1.70;;
14088;SDS011;7120;52.890;6.040;2023-05-16T09:06:22;6.27;;;1.80;;
14088;SDS011;7120;52.890;6.040;2023-05-16T09:08:48;3.13;;;1.20;;
14088;SDS011;7120;52.890;6.040;2023-05-16T09:11:14;6.93;;;2.20;;
14088;SDS011;7120;52.890;6.040;2023-05-16T09:13:39;6.93;;;2.20;;
14088;SDS011;7120;52.890;6.040;2023-05-16T09:16:12;8.33;;;1.97;;
14088;SDS011;7120;52.890;6.040;2023-05-16T09:18:39;8.60;;;2.03;;
14088;SDS011;7120;52.890;6.040;2023-05-16T09:21:07;12.27;;;3.20;;
14088;SDS011;7120;52.890;6.040;2023-05-16T09:23:34;6.83;;;1.93;;
14088;SDS011;7120;52.890;6.040;2023-05-16T09:26:00;7.07;;;1.80;;
14088;SDS011;7120;52.890;6.040;2023-05-16T09:28:27;8.53;;;1.90;;
14088;SDS011;7120;52.890;6.040;2023-05-16T09:30:53;4.37;;;1.53;;
14088;SDS011;7120;52.890;6.040;2023-05-16T09:33:22;4.77;;;1.63;;
14088;SDS011;7120;52.890;6.040;2023-05-16T09:35:57;7.13;;;2.13;;
14088;SDS011;7120;52.890;6.040;2023-05-16T09:38:24;6.40;;;1.80;;
14088;SDS011;7120;52.890;6.040;2023-05-16T09:40:51;8.97;;;1.70;;
14088;SDS011;7120;52.890;6.040;2023-05-16T09:43:16;7.80;;;2.10;;
14088;SDS011;7120;52.890;6.040;2023-05-16T09:45:45;6.77;;;1.70;;
14088;SDS011;7120;52.890;6.040;2023-05-16T09:48:12;6.30;;;1.93;;
14088;SDS011;7120;52.890;6.040;2023-05-16T09:50:39;7.60;;;1.77;;
14088;SDS011;7120;52.890;6.040;2023-05-16T09:53:10;5.87;;;1.80;;
14088;SDS011;7120;52.890;6.040;2023-05-16T09:55:37;5.00;;;1.67;;
14088;SDS011;7120;52.890;6.040;2023-05-16T09:58:03;9.40;;;2.40;;
14088;SDS011;7120;52.890;6.040;2023-05-16T10:00:29;6.33;;;1.73;;
14088;SDS011;7120;52.890;6.040;2023-05-16T10:02:56;5.90;;;1.70;;
14088;SDS011;7120;52.890;6.040;2023-05-16T10:05:23;5.77;;;1.77;;
14088;SDS011;7120;52.890;6.040;2023-05-16T10:07:56;5.87;;;1.80;;
14088;SDS011;7120;52.890;6.040;2023-05-16T10:10:22;4.40;;;1.80;;
14088;SDS011;7120;52.890;6.040;2023-05-16T10:12:49;6.57;;;1.40;;
14088;SDS011;7120;52.890;6.040;2023-05-16T10:15:15;6.37;;;1.67;;
14088;SDS011;7120;52.890;6.040;2023-05-16T10:17:42;6.47;;;1.70;;
14088;SDS011;7120;52.890;6.040;2023-05-16T10:20:10;4.23;;;1.67;;
14088;SDS011;7120;52.890;6.040;2023-05-16T10:22:39;4.50;;;1.47;;
14088;SDS011;7120;52.890;6.040;2023-05-16T10:25:08;5.27;;;1.83;;
14088;SDS011;7120;52.890;6.040;2023-05-16T10:27:41;3.30;;;1.47;;
14088;SDS011;7120;52.890;6.040;2023-05-16T10:30:06;7.40;;;1.87;;
14088;SDS011;7120;52.890;6.040;2023-05-16T10:32:33;5.17;;;1.90;;
14088;SDS011;7120;52.890;6.040;2023-05-16T10:35:00;9.47;;;2.10;;
14088;SDS011;7120;52.890;6.040;2023-05-16T10:37:27;8.40;;;1.90;;
14088;SDS011;7120;52.890;6.040;2023-05-16T10:39:54;8.90;;;1.90;;
14088;SDS011;7120;52.890;6.040;2023-05-16T10:42:20;5.93;;;2.03;;
14088;SDS011;7120;52.890;6.040;2023-05-16T10:44:45;5.23;;;2.03;;
14088;SDS011;7120;52.890;6.040;2023-05-16T10:47:10;3.43;;;1.47;;
14088;SDS011;7120;52.890;6.040;2023-05-16T10:49:38;4.03;;;1.50;;
14088;SDS011;7120;52.890;6.040;2023-05-16T10:52:09;4.80;;;1.57;;
14088;SDS011;7120;52.890;6.040;2023-05-16T10:54:39;5.33;;;1.90;;
14088;SDS011;7120;52.890;6.040;2023-05-16T10:57:09;3.70;;;1.43;;
14088;SDS011;7120;52.890;6.040;2023-05-16T10:59:42;5.47;;;1.70;;
14088;SDS011;7120;52.890;6.040;2023-05-16T11:04:54;11.97;;;3.00;;
14088;SDS011;7120;52.890;6.040;2023-05-16T11:07:22;5.50;;;1.90;;
14088;SDS011;7120;52.890;6.040;2023-05-16T11:12:37;9.40;;;1.93;;
14088;SDS011;7120;52.890;6.040;2023-05-16T11:15:20;7.80;;;2.00;;
14088;SDS011;7120;52.890;6.040;2023-05-16T11:17:48;6.93;;;1.80;;
14088;SDS011;7120;52.890;6.040;2023-05-16T11:20:24;4.97;;;1.77;;
14088;SDS011;7120;52.890;6.040;2023-05-16T11:22:50;3.60;;;1.40;;
14088;SDS011;7120;52.890;6.040;2023-05-16T11:25:50;3.23;;;1.40;;
14088;SDS011;7120;52.890;6.040;2023-05-16T11:28:18;4.20;;;1.33;;
14088;SDS011;7120;52.890;6.040;2023-05-16T11:30:45;4.83;;;1.20;;
14088;SDS011;7120;52.890;6.040;2023-05-16T11:33:13;3.57;;;1.20;;
14088;SDS011;7120;52.890;6.040;2023-05-16T11:35:38;4.40;;;1.60;;
14088;SDS011;7120;52.890;6.040;2023-05-16T11:38:03;3.23;;;1.43;;
14088;SDS011;7120;52.890;6.040;2023-05-16T11:40:29;5.07;;;1.63;;
14088;SDS011;7120;52.890;6.040;2023-05-16T11:42:58;4.13;;;1.70;;
14088;SDS011;7120;52.890;6.040;2023-05-16T11:45:24;9.10;;;1.80;;
14088;SDS011;7120;52.890;6.040;2023-05-16T11:47:50;4.60;;;1.80;;
14088;SDS011;7120;52.890;6.040;2023-05-16T11:50:19;5.63;;;1.60;;
14088;SDS011;7120;52.890;6.040;2023-05-16T11:52:48;4.73;;;2.10;;
14088;SDS011;7120;52.890;6.040;2023-05-16T11:55:18;3.70;;;1.70;;
14088;SDS011;7120;52.890;6.040;2023-05-16T11:57:45;5.13;;;1.70;;
14088;SDS011;7120;52.890;6.040;2023-05-16T12:02:42;4.20;;;1.80;;
14088;SDS011;7120;52.890;6.040;2023-05-16T12:05:08;4.07;;;2.20;;
14088;SDS011;7120;52.890;6.040;2023-05-16T12:07:35;4.23;;;1.70;;
14088;SDS011;7120;52.890;6.040;2023-05-16T12:10:08;4.23;;;1.83;;
14088;SDS011;7120;52.890;6.040;2023-05-16T12:12:35;9.10;;;2.10;;
14088;SDS011;7120;52.890;6.040;2023-05-16T12:15:02;5.17;;;1.60;;
14088;SDS011;7120;52.890;6.040;2023-05-16T12:17:28;3.37;;;1.47;;
14088;SDS011;7120;52.890;6.040;2023-05-16T12:19:54;4.40;;;2.17;;
14088;SDS011;7120;52.890;6.040;2023-05-16T12:22:20;4.87;;;1.83;;
14088;SDS011;7120;52.890;6.040;2023-05-16T12:24:45;4.53;;;1.57;;
14088;SDS011;7120;52.890;6.040;2023-05-16T12:27:11;5.07;;;2.00;;
14088;SDS011;7120;52.890;6.040;2023-05-16T12:29:36;4.47;;;1.90;;
14088;SDS011;7120;52.890;6.040;2023-05-16T12:32:02;3.47;;;1.90;;
14088;SDS011;7120;52.890;6.040;2023-05-16T12:34:28;2.70;;;1.80;;
14088;SDS011;7120;52.890;6.040;2023-05-16T12:36:54;5.30;;;2.13;;
14088;SDS011;7120;52.890;6.040;2023-05-16T12:39:20;6.03;;;2.30;;
14088;SDS011;7120;52.890;6.040;2023-05-16T12:41:46;7.67;;;2.43;;
14088;SDS011;7120;52.890;6.040;2023-05-16T12:44:16;5.03;;;2.53;;
14088;SDS011;7120;52.890;6.040;2023-05-16T12:46:48;3.83;;;2.10;;
14088;SDS011;7120;52.890;6.040;2023-05-16T12:49:18;8.07;;;2.83;;
14088;SDS011;7120;52.890;6.040;2023-05-16T12:51:47;6.60;;;2.60;;
14088;SDS011;7120;52.890;6.040;2023-05-16T12:54:16;6.37;;;3.37;;
14088;SDS011;7120;52.890;6.040;2023-05-16T12:56:42;7.27;;;3.53;;
14088;SDS011;7120;52.890;6.040;2023-05-16T12:59:09;5.03;;;2.90;;
14088;SDS011;7120;52.890;6.040;2023-05-16T13:01:36;6.83;;;3.40;;
14088;SDS011;7120;52.890;6.040;2023-05-16T13:04:02;5.90;;;2.83;;
14088;SDS011;7120;52.890;6.040;2023-05-16T13:06:28;5.07;;;2.83;;
14088;SDS011;7120;52.890;6.040;2023-05-16T13:08:54;5.87;;;2.87;;
14088;SDS011;7120;52.890;6.040;2023-05-16T13:11:19;5.30;;;3.40;;
14088;SDS011;7120;52.890;6.040;2023-05-16T13:13:45;5.93;;;2.77;;
14088;SDS011;7120;52.890;6.040;2023-05-16T13:16:10;5.13;;;2.77;;
14088;SDS011;7120;52.890;6.040;2023-05-16T13:18:36;4.50;;;2.77;;
14088;SDS011;7120;52.890;6.040;2023-05-16T13:21:01;7.27;;;3.27;;
14088;SDS011;7120;52.890;6.040;2023-05-16T13:23:30;6.77;;;2.87;;
14088;SDS011;7120;52.890;6.040;2023-05-16T13:25:57;5.17;;;2.80;;
14088;SDS011;7120;52.890;6.040;2023-05-16T13:28:23;5.57;;;3.20;;
14088;SDS011;7120;52.890;6.040;2023-05-16T13:30:49;4.80;;;2.83;;
14088;SDS011;7120;52.890;6.040;2023-05-16T13:33:15;6.43;;;3.30;;
14088;SDS011;7120;52.890;6.040;2023-05-16T13:35:40;8.47;;;3.50;;
14088;SDS011;7120;52.890;6.040;2023-05-16T13:38:06;7.30;;;3.60;;
14088;SDS011;7120;52.890;6.040;2023-05-16T13:40:32;5.80;;;3.13;;
14088;SDS011;7120;52.890;6.040;2023-05-16T13:42:57;7.47;;;3.13;;
14088;SDS011;7120;52.890;6.040;2023-05-16T13:45:23;6.30;;;2.70;;
14088;SDS011;7120;52.890;6.040;2023-05-16T13:47:48;7.83;;;2.87;;
14088;SDS011;7120;52.890;6.040;2023-05-16T13:50:13;9.03;;;3.10;;
14088;SDS011;7120;52.890;6.040;2023-05-16T13:52:39;5.90;;;2.80;;
14088;SDS011;7120;52.890;6.040;2023-05-16T13:55:04;5.77;;;2.53;;
14088;SDS011;7120;52.890;6.040;2023-05-16T13:57:30;7.53;;;2.83;;
14088;SDS011;7120;52.890;6.040;2023-05-16T13:59:57;4.37;;;2.63;;
14088;SDS011;7120;52.890;6.040;2023-05-16T14:02:22;8.30;;;3.43;;
14088;SDS011;7120;52.890;6.040;2023-05-16T14:04:50;6.50;;;3.50;;
14088;SDS011;7120;52.890;6.040;2023-05-16T14:07:15;5.10;;;3.70;;
14088;SDS011;7120;52.890;6.040;2023-05-16T14:09:41;6.67;;;3.97;;
14088;SDS011;7120;52.890;6.040;2023-05-16T14:12:06;5.73;;;3.90;;
14088;SDS011;7120;52.890;6.040;2023-05-16T14:14:33;6.37;;;4.03;;
14088;SDS011;7120;52.890;6.040;2023-05-16T14:16:58;9.47;;;4.40;;
14088;SDS011;7120;52.890;6.040;2023-05-16T14:19:24;8.47;;;4.53;;
14088;SDS011;7120;52.890;6.040;2023-05-16T14:21:49;5.20;;;4.27;;
14088;SDS011;7120;52.890;6.040;2023-05-16T14:24:15;8.27;;;4.37;;
14088;SDS011;7120;52.890;6.040;2023-05-16T14:26:40;7.33;;;4.13;;
14088;SDS011;7120;52.890;6.040;2023-05-16T14:29:06;6.73;;;3.93;;
14088;SDS011;7120;52.890;6.040;2023-05-16T14:31:31;10.43;;;4.00;;
14088;SDS011;7120;52.890;6.040;2023-05-16T14:33:57;7.77;;;3.90;;
14088;SDS011;7120;52.890;6.040;2023-05-16T14:36:23;9.53;;;3.97;;
14088;SDS011;7120;52.890;6.040;2023-05-16T14:38:48;7.43;;;3.80;;
14088;SDS011;7120;52.890;6.040;2023-05-16T14:41:14;6.63;;;3.53;;
14088;SDS011;7120;52.890;6.040;2023-05-16T14:43:40;7.80;;;3.50;;
14088;SDS011;7120;52.890;6.040;2023-05-16T14:46:05;5.93;;;3.27;;
14088;SDS011;7120;52.890;6.040;2023-05-16T14:48:30;4.07;;;2.80;;
14088;SDS011;7120;52.890;6.040;2023-05-16T14:50:57;6.23;;;3.50;;
14088;SDS011;7120;52.890;6.040;2023-05-16T14:53:22;5.10;;;2.50;;
14088;SDS011;7120;52.890;6.040;2023-05-16T14:55:48;7.27;;;3.03;;
14088;SDS011;7120;52.890;6.040;2023-05-16T14:58:13;4.17;;;2.47;;
14088;SDS011;7120;52.890;6.040;2023-05-16T15:00:39;5.43;;;2.57;;
14088;SDS011;7120;52.890;6.040;2023-05-16T15:03:05;5.27;;;2.97;;
14088;SDS011;7120;52.890;6.040;2023-05-16T15:05:30;6.03;;;2.43;;
14088;SDS011;7120;52.890;6.040;2023-05-16T15:07:56;6.93;;;2.90;;
14088;SDS011;7120;52.890;6.040;2023-05-16T15:10:21;5.63;;;3.03;;
14088;SDS011;7120;52.890;6.040;2023-05-16T15:12:47;4.67;;;2.47;;
14088;SDS011;7120;52.890;6.040;2023-05-16T15:15:12;7.70;;;3.03;;
14088;SDS011;7120;52.890;6.040;2023-05-16T15:17:39;6.43;;;2.83;;